sensor_id;sensor_type;location;lat;lon;timestamp;P1;durP1;ratioP1;P2;durP2;ratioP2
5026;SDS011;2532;52.480;13.354;2023-10-19T00:00:19;22.17;;;13.87;;
5026;SDS011;2532;52.480;13.354;2023-10-19T00:02:48;27.17;;;13.67;;
5026;SDS011;2532;52.480;13.354;2023-10-19T00:05:18;25.17;;;13.13;;
5026;SDS011;2532;52.480;13.354;2023-10-19T00:07:46;22.13;;;13.33;;
5026;SDS011;2532;52.480;13.354;2023-10-19T00:10:12;18.93;;;12.90;;
5026;SDS011;2532;52.480;13.354;2023-10-19T00:12:42;19.80;;;13.20;;
5026;SDS011;2532;52.480;13.354;2023-10-19T00:15:17;22.20;;;12.63;;
5026;SDS011;2532;52.480;13.354;2023-10-19T00:17:49;24.07;;;13.03;;
5026;SDS011;2532;52.480;13.354;2023-10-19T00:20:20;21.47;;;12.57;;
5026;SDS011;2532;52.480;13.354;2023-10-19T00:23:16;21.70;;;13.20;;
5026;SDS011;2532;52.480;13.354;2023-10-19T00:25:43;19.37;;;12.63;;
5026;SDS011;2532;52.480;13.354;2023-10-19T00:28:16;22.53;;;13.60;;
5026;SDS011;2532;52.480;13.354;2023-10-19T00:30:42;22.00;;;12.73;;
5026;SDS011;2532;52.480;13.354;2023-10-19T00:33:10;20.80;;;12.27;;
5026;SDS011;2532;52.480;13.354;2023-10-19T00:35:44;23.60;;;13.23;;
5026;SDS011;2532;52.480;13.354;2023-10-19T00:38:16;22.40;;;13.13;;
5026;SDS011;2532;52.480;13.354;2023-10-19T00:41:04;21.57;;;12.67;;
5026;SDS011;2532;52.480;13.354;2023-10-19T00:43:37;28.30;;;13.30;;
5026;SDS011;2532;52.480;13.354;2023-10-19T00:46:08;21.03;;;13.10;;
5026;SDS011;2532;52.480;13.354;2023-10-19T00:48:40;21.50;;;13.70;;
5026;SDS011;2532;52.480;13.354;2023-10-19T00:51:12;20.43;;;13.03;;
5026;SDS011;2532;52.480;13.354;2023-10-19T00:53:52;19.57;;;12.03;;
5026;SDS011;2532;52.480;13.354;2023-10-19T00:56:21;25.73;;;13.97;;
5026;SDS011;2532;52.480;13.354;2023-10-19T00:58:52;23.83;;;12.37;;
5026;SDS011;2532;52.480;13.354;2023-10-19T01:01:25;19.10;;;12.90;;
5026;SDS011;2532;52.480;13.354;2023-10-19T01:03:54;22.87;;;13.87;;
5026;SDS011;2532;52.480;13.354;2023-10-19T01:06:25;21.47;;;13.33;;
5026;SDS011;2532;52.480;13.354;2023-10-19T01:08:56;22.77;;;13.20;;
5026;SDS011;2532;52.480;13.354;2023-10-19T01:11:23;23.47;;;14.83;;
5026;SDS011;2532;52.480;13.354;2023-10-19T01:13:53;20.83;;;13.47;;
5026;SDS011;2532;52.480;13.354;2023-10-19T01:16:20;22.60;;;13.90;;
5026;SDS011;2532;52.480;13.354;2023-10-19T01:18:48;21.10;;;13.43;;
5026;SDS011;2532;52.480;13.354;2023-10-19T01:21:19;21.70;;;13.47;;
5026;SDS011;2532;52.480;13.354;2023-10-19T01:23:54;21.63;;;14.23;;
5026;SDS011;2532;52.480;13.354;2023-10-19T01:26:21;21.53;;;14.40;;
5026;SDS011;2532;52.480;13.354;2023-10-19T01:28:51;21.07;;;13.13;;
5026;SDS011;2532;52.480;13.354;2023-10-19T01:31:22;17.50;;;12.70;;
5026;SDS011;2532;52.480;13.354;2023-10-19T01:33:56;22.10;;;14.30;;
5026;SDS011;2532;52.480;13.354;2023-10-19T01:36:26;21.23;;;13.10;;
5026;SDS011;2532;52.480;13.354;2023-10-19T01:38:54;27.77;;;13.43;;
5026;SDS011;2532;52.480;13.354;2023-10-19T01:41:25;19.57;;;12.03;;
5026;SDS011;2532;52.480;13.354;2023-10-19T01:43:52;25.70;;;13.13;;
5026;SDS011;2532;52.480;13.354;2023-10-19T01:46:21;22.60;;;12.90;;
5026;SDS011;2532;52.480;13.354;2023-10-19T01:48:49;22.20;;;13.90;;
5026;SDS011;2532;52.480;13.354;2023-10-19T01:51:20;23.20;;;13.50;;
5026;SDS011;2532;52.480;13.354;2023-10-19T01:53:48;23.53;;;14.27;;
5026;SDS011;2532;52.480;13.354;2023-10-19T01:56:17;22.93;;;14.00;;
5026;SDS011;2532;52.480;13.354;2023-10-19T01:58:44;20.80;;;13.73;;
5026;SDS011;2532;52.480;13.354;2023-10-19T02:01:13;23.57;;;13.23;;
5026;SDS011;2532;52.480;13.354;2023-10-19T02:03:45;21.50;;;14.07;;
5026;SDS011;2532;52.480;13.354;2023-10-19T02:06:17;24.20;;;14.33;;
5026;SDS011;2532;52.480;13.354;2023-10-19T02:08:45;25.43;;;15.13;;
5026;SDS011;2532;52.480;13.354;2023-10-19T02:11:15;19.60;;;13.30;;
5026;SDS011;2532;52.480;13.354;2023-10-19T02:13:44;21.10;;;12.50;;
5026;SDS011;2532;52.480;13.354;2023-10-19T02:16:13;22.20;;;15.30;;
5026;SDS011;2532;52.480;13.354;2023-10-19T02:18:41;24.73;;;15.40;;
5026;SDS011;2532;52.480;13.354;2023-10-19T02:21:08;27.10;;;14.00;;
5026;SDS011;2532;52.480;13.354;2023-10-19T02:23:37;23.70;;;13.90;;
5026;SDS011;2532;52.480;13.354;2023-10-19T02:26:04;30.00;;;15.00;;
5026;SDS011;2532;52.480;13.354;2023-10-19T02:28:30;22.20;;;14.37;;
5026;SDS011;2532;52.480;13.354;2023-10-19T02:31:03;25.67;;;13.30;;
5026;SDS011;2532;52.480;13.354;2023-10-19T02:33:40;22.17;;;14.03;;
5026;SDS011;2532;52.480;13.354;2023-10-19T02:36:10;26.00;;;14.90;;
5026;SDS011;2532;52.480;13.354;2023-10-19T02:38:41;24.60;;;13.90;;
5026;SDS011;2532;52.480;13.354;2023-10-19T02:41:09;27.70;;;16.60;;
5026;SDS011;2532;52.480;13.354;2023-10-19T02:43:35;28.23;;;14.83;;
5026;SDS011;2532;52.480;13.354;2023-10-19T02:46:04;23.00;;;14.37;;
5026;SDS011;2532;52.480;13.354;2023-10-19T02:48:30;29.40;;;14.23;;
5026;SDS011;2532;52.480;13.354;2023-10-19T02:50:57;24.57;;;14.50;;
5026;SDS011;2532;52.480;13.354;2023-10-19T02:53:33;24.50;;;14.43;;
5026;SDS011;2532;52.480;13.354;2023-10-19T02:56:09;26.73;;;14.40;;
5026;SDS011;2532;52.480;13.354;2023-10-19T02:58:36;26.90;;;15.60;;
5026;SDS011;2532;52.480;13.354;2023-10-19T03:01:12;25.10;;;15.40;;
5026;SDS011;2532;52.480;13.354;2023-10-19T03:03:45;30.60;;;15.93;;
5026;SDS011;2532;52.480;13.354;2023-10-19T03:06:12;23.37;;;14.40;;
5026;SDS011;2532;52.480;13.354;2023-10-19T03:08:40;23.10;;;14.50;;
5026;SDS011;2532;52.480;13.354;2023-10-19T03:11:07;23.73;;;14.90;;
5026;SDS011;2532;52.480;13.354;2023-10-19T03:13:34;27.77;;;15.07;;
5026;SDS011;2532;52.480;13.354;2023-10-19T03:16:01;26.63;;;15.70;;
5026;SDS011;2532;52.480;13.354;2023-10-19T03:18:33;25.80;;;15.07;;
5026;SDS011;2532;52.480;13.354;2023-10-19T03:21:00;26.63;;;15.37;;
5026;SDS011;2532;52.480;13.354;2023-10-19T03:23:27;28.87;;;15.70;;
5026;SDS011;2532;52.480;13.354;2023-10-19T03:26:02;23.93;;;14.50;;
5026;SDS011;2532;52.480;13.354;2023-10-19T03:28:47;25.03;;;15.23;;
5026;SDS011;2532;52.480;13.354;2023-10-19T03:31:19;23.10;;;14.80;;
5026;SDS011;2532;52.480;13.354;2023-10-19T03:33:47;28.30;;;15.47;;
5026;SDS011;2532;52.480;13.354;2023-10-19T03:36:15;25.80;;;16.80;;
5026;SDS011;2532;52.480;13.354;2023-10-19T03:38:42;26.10;;;14.57;;
5026;SDS011;2532;52.480;13.354;2023-10-19T03:41:11;25.77;;;15.60;;
5026;SDS011;2532;52.480;13.354;2023-10-19T03:43:39;28.30;;;16.07;;
5026;SDS011;2532;52.480;13.354;2023-10-19T03:46:06;27.63;;;14.97;;
5026;SDS011;2532;52.480;13.354;2023-10-19T03:48:48;35.63;;;15.60;;
5026;SDS011;2532;52.480;13.354;2023-10-19T03:51:15;27.63;;;15.93;;
5026;SDS011;2532;52.480;13.354;2023-10-19T03:53:43;31.43;;;14.53;;
5026;SDS011;2532;52.480;13.354;2023-10-19T03:56:14;25.90;;;15.93;;
5026;SDS011;2532;52.480;13.354;2023-10-19T03:58:42;27.53;;;15.70;;
5026;SDS011;2532;52.480;13.354;2023-10-19T04:01:13;27.77;;;15.73;;
5026;SDS011;2532;52.480;13.354;2023-10-19T04:03:41;26.53;;;14.27;;
5026;SDS011;2532;52.480;13.354;2023-10-19T04:06:10;24.90;;;16.20;;
5026;SDS011;2532;52.480;13.354;2023-10-19T04:08:39;31.93;;;18.60;;
5026;SDS011;2532;52.480;13.354;2023-10-19T04:11:07;25.90;;;15.83;;
5026;SDS011;2532;52.480;13.354;2023-10-19T04:13:36;27.63;;;15.73;;
5026;SDS011;2532;52.480;13.354;2023-10-19T04:16:04;29.43;;;18.07;;
5026;SDS011;2532;52.480;13.354;2023-10-19T04:18:34;30.03;;;16.13;;
5026;SDS011;2532;52.480;13.354;2023-10-19T04:21:03;27.00;;;15.53;;
5026;SDS011;2532;52.480;13.354;2023-10-19T04:23:31;25.80;;;15.20;;
5026;SDS011;2532;52.480;13.354;2023-10-19T04:26:01;26.10;;;16.10;;
5026;SDS011;2532;52.480;13.354;2023-10-19T04:28:36;27.80;;;15.37;;
5026;SDS011;2532;52.480;13.354;2023-10-19T04:31:09;29.90;;;17.07;;
5026;SDS011;2532;52.480;13.354;2023-10-19T04:33:39;26.53;;;15.90;;
5026;SDS011;2532;52.480;13.354;2023-10-19T04:36:07;26.73;;;16.00;;
5026;SDS011;2532;52.480;13.354;2023-10-19T04:38:37;26.87;;;15.97;;
5026;SDS011;2532;52.480;13.354;2023-10-19T04:41:05;24.63;;;15.80;;
5026;SDS011;2532;52.480;13.354;2023-10-19T04:43:35;25.33;;;16.00;;
5026;SDS011;2532;52.480;13.354;2023-10-19T04:46:04;28.43;;;16.13;;
5026;SDS011;2532;52.480;13.354;2023-10-19T04:48:35;29.33;;;17.17;;
5026;SDS011;2532;52.480;13.354;2023-10-19T04:51:05;28.70;;;15.83;;
5026;SDS011;2532;52.480;13.354;2023-10-19T04:53:32;25.83;;;15.87;;
5026;SDS011;2532;52.480;13.354;2023-10-19T04:56:02;29.03;;;16.30;;
5026;SDS011;2532;52.480;13.354;2023-10-19T04:58:29;28.17;;;16.00;;
5026;SDS011;2532;52.480;13.354;2023-10-19T05:00:57;24.33;;;15.03;;
5026;SDS011;2532;52.480;13.354;2023-10-19T05:03:24;26.40;;;16.93;;
5026;SDS011;2532;52.480;13.354;2023-10-19T05:05:53;27.17;;;16.43;;
5026;SDS011;2532;52.480;13.354;2023-10-19T05:08:21;28.23;;;17.37;;
5026;SDS011;2532;52.480;13.354;2023-10-19T05:10:51;33.63;;;17.97;;
5026;SDS011;2532;52.480;13.354;2023-10-19T05:13:20;31.10;;;17.20;;
5026;SDS011;2532;52.480;13.354;2023-10-19T05:15:50;30.87;;;16.60;;
5026;SDS011;2532;52.480;13.354;2023-10-19T05:18:18;34.77;;;20.27;;
5026;SDS011;2532;52.480;13.354;2023-10-19T05:20:45;27.27;;;17.00;;
5026;SDS011;2532;52.480;13.354;2023-10-19T05:23:12;35.63;;;17.70;;
5026;SDS011;2532;52.480;13.354;2023-10-19T05:25:39;28.00;;;16.93;;
5026;SDS011;2532;52.480;13.354;2023-10-19T05:28:06;32.10;;;17.20;;
5026;SDS011;2532;52.480;13.354;2023-10-19T05:30:36;32.63;;;17.47;;
5026;SDS011;2532;52.480;13.354;2023-10-19T05:33:04;27.13;;;17.73;;
5026;SDS011;2532;52.480;13.354;2023-10-19T05:35:31;30.50;;;16.80;;
5026;SDS011;2532;52.480;13.354;2023-10-19T05:38:03;33.27;;;17.50;;
5026;SDS011;2532;52.480;13.354;2023-10-19T05:40:31;31.10;;;17.73;;
5026;SDS011;2532;52.480;13.354;2023-10-19T05:42:59;28.40;;;17.67;;
5026;SDS011;2532;52.480;13.354;2023-10-19T05:45:26;29.30;;;16.40;;
5026;SDS011;2532;52.480;13.354;2023-10-19T05:47:55;39.37;;;16.63;;
5026;SDS011;2532;52.480;13.354;2023-10-19T05:50:23;28.70;;;17.57;;
5026;SDS011;2532;52.480;13.354;2023-10-19T05:52:50;27.83;;;17.80;;
5026;SDS011;2532;52.480;13.354;2023-10-19T05:55:18;27.70;;;17.67;;
5026;SDS011;2532;52.480;13.354;2023-10-19T05:57:46;33.83;;;17.27;;
5026;SDS011;2532;52.480;13.354;2023-10-19T06:00:14;33.33;;;18.53;;
5026;SDS011;2532;52.480;13.354;2023-10-19T06:02:43;29.57;;;18.30;;
5026;SDS011;2532;52.480;13.354;2023-10-19T06:05:12;32.10;;;19.70;;
5026;SDS011;2532;52.480;13.354;2023-10-19T06:07:41;32.43;;;16.80;;
5026;SDS011;2532;52.480;13.354;2023-10-19T06:10:10;34.27;;;19.47;;
5026;SDS011;2532;52.480;13.354;2023-10-19T06:12:41;40.50;;;23.10;;
5026;SDS011;2532;52.480;13.354;2023-10-19T06:15:08;32.00;;;18.87;;
5026;SDS011;2532;52.480;13.354;2023-10-19T06:17:37;30.70;;;18.43;;
5026;SDS011;2532;52.480;13.354;2023-10-19T06:20:06;32.00;;;18.77;;
5026;SDS011;2532;52.480;13.354;2023-10-19T06:22:46;33.73;;;19.70;;
5026;SDS011;2532;52.480;13.354;2023-10-19T06:25:15;37.33;;;20.27;;
5026;SDS011;2532;52.480;13.354;2023-10-19T06:27:45;37.13;;;23.90;;
5026;SDS011;2532;52.480;13.354;2023-10-19T06:30:13;35.23;;;20.20;;
5026;SDS011;2532;52.480;13.354;2023-10-19T06:32:45;33.60;;;18.93;;
5026;SDS011;2532;52.480;13.354;2023-10-19T06:35:13;41.00;;;22.00;;
5026;SDS011;2532;52.480;13.354;2023-10-19T06:37:41;33.37;;;21.27;;
5026;SDS011;2532;52.480;13.354;2023-10-19T06:40:10;33.73;;;19.80;;
5026;SDS011;2532;52.480;13.354;2023-10-19T06:42:40;38.57;;;20.57;;
5026;SDS011;2532;52.480;13.354;2023-10-19T06:45:07;35.97;;;22.93;;
5026;SDS011;2532;52.480;13.354;2023-10-19T06:47:38;48.90;;;26.50;;
5026;SDS011;2532;52.480;13.354;2023-10-19T06:50:06;35.27;;;20.77;;
5026;SDS011;2532;52.480;13.354;2023-10-19T06:52:35;41.10;;;24.43;;
5026;SDS011;2532;52.480;13.354;2023-10-19T06:55:02;37.37;;;19.00;;
5026;SDS011;2532;52.480;13.354;2023-10-19T06:57:31;62.87;;;21.33;;
5026;SDS011;2532;52.480;13.354;2023-10-19T06:59:59;35.73;;;19.50;;
5026;SDS011;2532;52.480;13.354;2023-10-19T07:02:35;35.97;;;20.33;;
5026;SDS011;2532;52.480;13.354;2023-10-19T07:05:02;37.90;;;20.10;;
5026;SDS011;2532;52.480;13.354;2023-10-19T07:07:30;34.70;;;19.17;;
5026;SDS011;2532;52.480;13.354;2023-10-19T07:09:57;31.33;;;19.40;;
5026;SDS011;2532;52.480;13.354;2023-10-19T07:12:24;32.40;;;18.87;;
5026;SDS011;2532;52.480;13.354;2023-10-19T07:14:52;32.87;;;18.50;;
5026;SDS011;2532;52.480;13.354;2023-10-19T07:17:19;40.23;;;20.33;;
5026;SDS011;2532;52.480;13.354;2023-10-19T07:19:46;32.27;;;20.00;;
5026;SDS011;2532;52.480;13.354;2023-10-19T07:22:13;58.43;;;23.40;;
5026;SDS011;2532;52.480;13.354;2023-10-19T07:24:42;35.50;;;19.70;;
5026;SDS011;2532;52.480;13.354;2023-10-19T07:27:08;37.33;;;18.97;;
5026;SDS011;2532;52.480;13.354;2023-10-19T07:29:43;57.63;;;30.63;;
5026;SDS011;2532;52.480;13.354;2023-10-19T07:32:11;50.13;;;19.90;;
5026;SDS011;2532;52.480;13.354;2023-10-19T07:34:39;34.37;;;19.47;;
5026;SDS011;2532;52.480;13.354;2023-10-19T07:37:06;32.13;;;19.00;;
5026;SDS011;2532;52.480;13.354;2023-10-19T07:39:33;36.93;;;19.63;;
5026;SDS011;2532;52.480;13.354;2023-10-19T07:42:04;34.07;;;18.57;;
5026;SDS011;2532;52.480;13.354;2023-10-19T07:44:32;33.53;;;19.00;;
5026;SDS011;2532;52.480;13.354;2023-10-19T07:47:00;34.60;;;19.67;;
5026;SDS011;2532;52.480;13.354;2023-10-19T07:49:28;29.30;;;17.87;;
5026;SDS011;2532;52.480;13.354;2023-10-19T07:51:55;31.63;;;18.27;;
5026;SDS011;2532;52.480;13.354;2023-10-19T07:54:23;28.90;;;17.83;;
5026;SDS011;2532;52.480;13.354;2023-10-19T07:56:49;29.97;;;18.17;;
5026;SDS011;2532;52.480;13.354;2023-10-19T07:59:16;30.37;;;17.83;;
5026;SDS011;2532;52.480;13.354;2023-10-19T08:01:43;30.57;;;18.00;;
5026;SDS011;2532;52.480;13.354;2023-10-19T08:04:11;39.27;;;20.63;;
5026;SDS011;2532;52.480;13.354;2023-10-19T08:06:39;35.10;;;19.13;;
5026;SDS011;2532;52.480;13.354;2023-10-19T08:09:06;35.03;;;18.00;;
5026;SDS011;2532;52.480;13.354;2023-10-19T08:11:36;33.40;;;18.00;;
5026;SDS011;2532;52.480;13.354;2023-10-19T08:14:03;30.63;;;18.87;;
5026;SDS011;2532;52.480;13.354;2023-10-19T08:16:31;35.13;;;18.17;;
5026;SDS011;2532;52.480;13.354;2023-10-19T08:18:58;32.13;;;18.40;;
5026;SDS011;2532;52.480;13.354;2023-10-19T08:21:25;30.17;;;19.27;;
5026;SDS011;2532;52.480;13.354;2023-10-19T08:23:55;32.30;;;18.40;;
5026;SDS011;2532;52.480;13.354;2023-10-19T08:26:22;34.03;;;19.90;;
5026;SDS011;2532;52.480;13.354;2023-10-19T08:28:50;40.10;;;18.77;;
5026;SDS011;2532;52.480;13.354;2023-10-19T08:31:17;37.50;;;19.10;;
5026;SDS011;2532;52.480;13.354;2023-10-19T08:33:44;28.67;;;18.27;;
5026;SDS011;2532;52.480;13.354;2023-10-19T08:36:16;34.23;;;19.07;;
5026;SDS011;2532;52.480;13.354;2023-10-19T08:38:44;32.30;;;18.50;;
5026;SDS011;2532;52.480;13.354;2023-10-19T08:41:13;36.60;;;19.50;;
5026;SDS011;2532;52.480;13.354;2023-10-19T08:43:41;38.83;;;18.43;;
5026;SDS011;2532;52.480;13.354;2023-10-19T08:46:08;32.33;;;19.10;;
5026;SDS011;2532;52.480;13.354;2023-10-19T08:48:37;30.07;;;17.93;;
5026;SDS011;2532;52.480;13.354;2023-10-19T08:51:08;33.87;;;17.97;;
5026;SDS011;2532;52.480;13.354;2023-10-19T08:53:36;33.73;;;19.17;;
5026;SDS011;2532;52.480;13.354;2023-10-19T08:56:05;29.47;;;17.70;;
5026;SDS011;2532;52.480;13.354;2023-10-19T08:58:35;30.50;;;17.47;;
5026;SDS011;2532;52.480;13.354;2023-10-19T09:01:02;28.87;;;17.07;;
5026;SDS011;2532;52.480;13.354;2023-10-19T09:03:34;30.70;;;17.80;;
5026;SDS011;2532;52.480;13.354;2023-10-19T09:06:02;31.83;;;16.90;;
5026;SDS011;2532;52.480;13.354;2023-10-19T09:08:30;29.97;;;16.87;;
5026;SDS011;2532;52.480;13.354;2023-10-19T09:11:07;34.40;;;17.90;;
5026;SDS011;2532;52.480;13.354;2023-10-19T09:13:44;34.80;;;17.43;;
5026;SDS011;2532;52.480;13.354;2023-10-19T09:16:12;26.70;;;16.80;;
5026;SDS011;2532;52.480;13.354;2023-10-19T09:18:40;27.10;;;17.70;;
5026;SDS011;2532;52.480;13.354;2023-10-19T09:21:07;33.77;;;19.00;;
5026;SDS011;2532;52.480;13.354;2023-10-19T09:23:49;36.37;;;18.47;;
5026;SDS011;2532;52.480;13.354;2023-10-19T09:26:16;31.97;;;18.77;;
5026;SDS011;2532;52.480;13.354;2023-10-19T09:28:47;26.70;;;17.30;;
5026;SDS011;2532;52.480;13.354;2023-10-19T09:31:15;38.53;;;18.43;;
5026;SDS011;2532;52.480;13.354;2023-10-19T09:33:43;34.83;;;18.37;;
5026;SDS011;2532;52.480;13.354;2023-10-19T09:36:11;27.80;;;18.33;;
5026;SDS011;2532;52.480;13.354;2023-10-19T09:38:39;30.60;;;17.93;;
5026;SDS011;2532;52.480;13.354;2023-10-19T09:41:10;33.00;;;18.60;;
5026;SDS011;2532;52.480;13.354;2023-10-19T09:43:41;30.67;;;17.53;;
5026;SDS011;2532;52.480;13.354;2023-10-19T09:46:21;31.57;;;18.47;;
5026;SDS011;2532;52.480;13.354;2023-10-19T09:48:49;28.70;;;18.70;;
5026;SDS011;2532;52.480;13.354;2023-10-19T09:51:17;30.17;;;18.30;;
5026;SDS011;2532;52.480;13.354;2023-10-19T09:53:47;32.77;;;18.07;;
5026;SDS011;2532;52.480;13.354;2023-10-19T09:56:19;33.27;;;17.67;;
5026;SDS011;2532;52.480;13.354;2023-10-19T09:58:48;27.97;;;17.10;;
5026;SDS011;2532;52.480;13.354;2023-10-19T10:01:20;28.60;;;17.30;;
5026;SDS011;2532;52.480;13.354;2023-10-19T10:03:48;35.97;;;17.93;;
5026;SDS011;2532;52.480;13.354;2023-10-19T10:06:17;34.87;;;20.50;;
5026;SDS011;2532;52.480;13.354;2023-10-19T10:08:53;33.00;;;17.73;;
5026;SDS011;2532;52.480;13.354;2023-10-19T10:11:21;33.53;;;18.07;;
5026;SDS011;2532;52.480;13.354;2023-10-19T10:13:51;28.73;;;18.60;;
5026;SDS011;2532;52.480;13.354;2023-10-19T10:16:22;32.00;;;18.43;;
5026;SDS011;2532;52.480;13.354;2023-10-19T10:18:50;34.37;;;21.47;;
5026;SDS011;2532;52.480;13.354;2023-10-19T10:21:21;32.97;;;19.30;;
5026;SDS011;2532;52.480;13.354;2023-10-19T10:23:50;34.03;;;20.87;;
5026;SDS011;2532;52.480;13.354;2023-10-19T10:26:19;30.93;;;18.43;;
5026;SDS011;2532;52.480;13.354;2023-10-19T10:29:06;35.60;;;19.83;;
5026;SDS011;2532;52.480;13.354;2023-10-19T10:31:42;25.50;;;17.40;;
5026;SDS011;2532;52.480;13.354;2023-10-19T10:34:11;32.57;;;19.67;;
5026;SDS011;2532;52.480;13.354;2023-10-19T10:36:58;35.13;;;19.73;;
5026;SDS011;2532;52.480;13.354;2023-10-19T10:39:27;34.40;;;20.13;;
5026;SDS011;2532;52.480;13.354;2023-10-19T10:41:55;42.53;;;20.70;;
5026;SDS011;2532;52.480;13.354;2023-10-19T10:44:35;36.10;;;21.53;;
5026;SDS011;2532;52.480;13.354;2023-10-19T10:47:05;33.07;;;19.90;;
5026;SDS011;2532;52.480;13.354;2023-10-19T10:49:34;32.57;;;19.80;;
5026;SDS011;2532;52.480;13.354;2023-10-19T10:52:11;33.90;;;19.80;;
5026;SDS011;2532;52.480;13.354;2023-10-19T10:54:38;32.90;;;19.90;;
5026;SDS011;2532;52.480;13.354;2023-10-19T10:57:05;29.10;;;19.23;;
5026;SDS011;2532;52.480;13.354;2023-10-19T10:59:33;32.00;;;21.27;;
5026;SDS011;2532;52.480;13.354;2023-10-19T11:02:00;36.70;;;20.47;;
5026;SDS011;2532;52.480;13.354;2023-10-19T11:04:30;36.63;;;23.03;;
5026;SDS011;2532;52.480;13.354;2023-10-19T11:06:59;45.80;;;22.53;;
5026;SDS011;2532;52.480;13.354;2023-10-19T11:09:26;32.90;;;20.23;;
5026;SDS011;2532;52.480;13.354;2023-10-19T11:11:53;32.50;;;19.83;;
5026;SDS011;2532;52.480;13.354;2023-10-19T11:14:20;33.63;;;18.80;;
5026;SDS011;2532;52.480;13.354;2023-10-19T11:16:56;38.80;;;20.10;;
5026;SDS011;2532;52.480;13.354;2023-10-19T11:19:40;28.77;;;19.03;;
5026;SDS011;2532;52.480;13.354;2023-10-19T11:22:10;32.23;;;19.00;;
5026;SDS011;2532;52.480;13.354;2023-10-19T11:24:39;32.00;;;19.03;;
5026;SDS011;2532;52.480;13.354;2023-10-19T11:27:08;30.47;;;20.13;;
5026;SDS011;2532;52.480;13.354;2023-10-19T11:29:37;30.33;;;18.63;;
5026;SDS011;2532;52.480;13.354;2023-10-19T11:32:04;34.33;;;21.23;;
5026;SDS011;2532;52.480;13.354;2023-10-19T11:34:31;32.97;;;19.50;;
5026;SDS011;2532;52.480;13.354;2023-10-19T11:40:15;30.43;;;19.57;;
5026;SDS011;2532;52.480;13.354;2023-10-19T11:42:44;32.03;;;20.80;;
5026;SDS011;2532;52.480;13.354;2023-10-19T11:45:22;34.87;;;20.93;;
5026;SDS011;2532;52.480;13.354;2023-10-19T11:47:55;35.13;;;20.93;;
5026;SDS011;2532;52.480;13.354;2023-10-19T11:50:22;32.87;;;18.97;;
5026;SDS011;2532;52.480;13.354;2023-10-19T11:52:54;37.20;;;20.40;;
5026;SDS011;2532;52.480;13.354;2023-10-19T11:55:24;38.97;;;20.50;;
5026;SDS011;2532;52.480;13.354;2023-10-19T11:57:54;34.90;;;20.03;;
5026;SDS011;2532;52.480;13.354;2023-10-19T12:00:21;38.60;;;20.97;;
5026;SDS011;2532;52.480;13.354;2023-10-19T12:02:59;39.13;;;21.20;;
5026;SDS011;2532;52.480;13.354;2023-10-19T12:05:25;42.00;;;25.43;;
5026;SDS011;2532;52.480;13.354;2023-10-19T12:07:55;40.47;;;21.93;;
5026;SDS011;2532;52.480;13.354;2023-10-19T12:10:27;35.77;;;20.90;;
5026;SDS011;2532;52.480;13.354;2023-10-19T12:13:02;37.57;;;22.93;;
5026;SDS011;2532;52.480;13.354;2023-10-19T12:15:33;38.67;;;23.60;;
5026;SDS011;2532;52.480;13.354;2023-10-19T12:18:00;34.43;;;20.90;;
5026;SDS011;2532;52.480;13.354;2023-10-19T12:20:30;40.37;;;22.60;;
5026;SDS011;2532;52.480;13.354;2023-10-19T12:22:59;35.77;;;21.20;;
5026;SDS011;2532;52.480;13.354;2023-10-19T12:25:26;35.60;;;20.77;;
5026;SDS011;2532;52.480;13.354;2023-10-19T12:27:57;34.90;;;20.37;;
5026;SDS011;2532;52.480;13.354;2023-10-19T12:30:25;37.17;;;21.20;;
5026;SDS011;2532;52.480;13.354;2023-10-19T12:33:07;37.63;;;22.53;;
5026;SDS011;2532;52.480;13.354;2023-10-19T12:36:04;39.70;;;21.80;;
5026;SDS011;2532;52.480;13.354;2023-10-19T12:38:54;34.60;;;21.37;;
5026;SDS011;2532;52.480;13.354;2023-10-19T12:41:25;36.00;;;21.77;;
5026;SDS011;2532;52.480;13.354;2023-10-19T12:43:57;37.03;;;21.70;;
5026;SDS011;2532;52.480;13.354;2023-10-19T12:46:27;38.63;;;21.60;;
5026;SDS011;2532;52.480;13.354;2023-10-19T12:48:55;38.03;;;24.10;;
5026;SDS011;2532;52.480;13.354;2023-10-19T12:51:25;35.93;;;23.10;;
5026;SDS011;2532;52.480;13.354;2023-10-19T12:53:54;35.10;;;22.87;;
5026;SDS011;2532;52.480;13.354;2023-10-19T12:56:21;41.83;;;23.40;;
5026;SDS011;2532;52.480;13.354;2023-10-19T12:58:50;37.23;;;22.17;;
5026;SDS011;2532;52.480;13.354;2023-10-19T13:01:16;41.10;;;22.33;;
5026;SDS011;2532;52.480;13.354;2023-10-19T13:03:44;39.53;;;22.93;;
5026;SDS011;2532;52.480;13.354;2023-10-19T13:06:14;44.63;;;28.10;;
5026;SDS011;2532;52.480;13.354;2023-10-19T13:08:42;35.77;;;23.87;;
5026;SDS011;2532;52.480;13.354;2023-10-19T13:11:13;40.50;;;23.63;;
5026;SDS011;2532;52.480;13.354;2023-10-19T13:13:43;43.10;;;22.97;;
5026;SDS011;2532;52.480;13.354;2023-10-19T13:16:12;45.10;;;24.83;;
5026;SDS011;2532;52.480;13.354;2023-10-19T13:18:40;45.10;;;26.60;;
5026;SDS011;2532;52.480;13.354;2023-10-19T13:21:12;42.20;;;25.90;;
5026;SDS011;2532;52.480;13.354;2023-10-19T13:23:52;43.23;;;29.87;;
5026;SDS011;2532;52.480;13.354;2023-10-19T13:26:21;46.93;;;30.30;;
5026;SDS011;2532;52.480;13.354;2023-10-19T13:28:51;42.37;;;25.73;;
5026;SDS011;2532;52.480;13.354;2023-10-19T13:31:20;45.93;;;28.17;;
5026;SDS011;2532;52.480;13.354;2023-10-19T13:33:47;42.77;;;26.53;;
5026;SDS011;2532;52.480;13.354;2023-10-19T13:36:42;39.63;;;24.60;;
5026;SDS011;2532;52.480;13.354;2023-10-19T13:39:10;44.43;;;24.83;;
5026;SDS011;2532;52.480;13.354;2023-10-19T13:41:51;54.63;;;27.50;;
5026;SDS011;2532;52.480;13.354;2023-10-19T13:44:18;45.13;;;26.43;;
5026;SDS011;2532;52.480;13.354;2023-10-19T13:46:47;40.77;;;24.57;;
5026;SDS011;2532;52.480;13.354;2023-10-19T13:49:16;39.80;;;25.67;;
5026;SDS011;2532;52.480;13.354;2023-10-19T13:51:44;46.60;;;26.30;;
5026;SDS011;2532;52.480;13.354;2023-10-19T13:54:14;48.47;;;26.70;;
5026;SDS011;2532;52.480;13.354;2023-10-19T13:56:44;48.53;;;25.70;;
5026;SDS011;2532;52.480;13.354;2023-10-19T13:59:11;49.20;;;26.87;;
5026;SDS011;2532;52.480;13.354;2023-10-19T14:01:41;50.10;;;26.33;;
5026;SDS011;2532;52.480;13.354;2023-10-19T14:04:08;49.13;;;28.00;;
5026;SDS011;2532;52.480;13.354;2023-10-19T14:06:35;42.20;;;26.13;;
5026;SDS011;2532;52.480;13.354;2023-10-19T14:09:02;43.47;;;24.47;;
5026;SDS011;2532;52.480;13.354;2023-10-19T14:11:30;44.73;;;26.50;;
5026;SDS011;2532;52.480;13.354;2023-10-19T14:13:59;45.10;;;26.13;;
5026;SDS011;2532;52.480;13.354;2023-10-19T14:16:25;45.23;;;25.67;;
5026;SDS011;2532;52.480;13.354;2023-10-19T14:18:55;46.63;;;26.27;;
5026;SDS011;2532;52.480;13.354;2023-10-19T14:21:22;44.13;;;26.33;;
5026;SDS011;2532;52.480;13.354;2023-10-19T14:23:51;42.10;;;25.83;;
5026;SDS011;2532;52.480;13.354;2023-10-19T14:26:24;46.20;;;27.17;;
5026;SDS011;2532;52.480;13.354;2023-10-19T14:28:55;54.13;;;31.43;;
5026;SDS011;2532;52.480;13.354;2023-10-19T14:31:24;52.30;;;29.90;;
5026;SDS011;2532;52.480;13.354;2023-10-19T14:33:51;44.77;;;26.83;;
5026;SDS011;2532;52.480;13.354;2023-10-19T14:36:20;41.83;;;26.17;;
5026;SDS011;2532;52.480;13.354;2023-10-19T14:38:47;38.77;;;25.90;;
5026;SDS011;2532;52.480;13.354;2023-10-19T14:41:14;43.07;;;26.47;;
5026;SDS011;2532;52.480;13.354;2023-10-19T14:43:43;46.43;;;25.47;;
5026;SDS011;2532;52.480;13.354;2023-10-19T14:46:11;44.20;;;26.43;;
5026;SDS011;2532;52.480;13.354;2023-10-19T14:48:39;42.90;;;27.13;;
5026;SDS011;2532;52.480;13.354;2023-10-19T14:51:06;47.90;;;28.53;;